Tsabong, Botswana
Current Conditions -  °F | °C
As of 5:00 AM on Wednesday 26 Nov 2014 (Local Time) from FAUP Reporting Station
Clear Clear  
Wind Chill: 64°   Ceiling: Unl
Heat Index: 64°   Visibility: 6mi
Dew Point: 30°   Wind: 3mph
Humidity: 28%   Direction: 20°NNE
Pressure: 29.83"   Gusts: NA
Location:  26.01°S, 22.4°E
Report Text: FAUP 260300Z 02003KT CAVOK 18/M01 Q1010 NOSIG
Loading
Personal Weather Stations






























Interactive Weather Map New forecast layout! Learn more

10-Day Weather Forecast

Advertisements
Track Severe Weather on mobile